sensor_id;sensor_type;location;lat;lon;timestamp;temperature;humidity
56424;DHT22;42329;43.516;3.684;2022-09-04T00:00:56;21.70;99.90
56424;DHT22;42329;43.516;3.684;2022-09-04T00:03:29;21.70;99.90
56424;DHT22;42329;43.516;3.684;2022-09-04T00:05:59;21.70;99.90
56424;DHT22;42329;43.516;3.684;2022-09-04T00:08:35;21.70;99.90
56424;DHT22;42329;43.516;3.684;2022-09-04T00:11:07;21.80;99.90
56424;DHT22;42329;43.516;3.684;2022-09-04T00:13:38;21.80;99.90
56424;DHT22;42329;43.516;3.684;2022-09-04T00:16:09;21.80;99.90
56424;DHT22;42329;43.516;3.684;2022-09-04T00:18:38;21.90;99.90
56424;DHT22;42329;43.516;3.684;2022-09-04T00:21:09;21.90;99.90
56424;DHT22;42329;43.516;3.684;2022-09-04T00:23:43;21.90;99.90
56424;DHT22;42329;43.516;3.684;2022-09-04T00:26:17;21.90;99.90
56424;DHT22;42329;43.516;3.684;2022-09-04T00:28:46;21.90;99.90
56424;DHT22;42329;43.516;3.684;2022-09-04T00:31:18;21.90;99.90
56424;DHT22;42329;43.516;3.684;2022-09-04T00:33:53;21.80;99.90
56424;DHT22;42329;43.516;3.684;2022-09-04T00:36:21;21.80;99.90
56424;DHT22;42329;43.516;3.684;2022-09-04T00:38:52;21.90;99.90
56424;DHT22;42329;43.516;3.684;2022-09-04T00:41:23;21.80;99.90
56424;DHT22;42329;43.516;3.684;2022-09-04T00:44:14;21.90;99.90
56424;DHT22;42329;43.516;3.684;2022-09-04T00:46:53;21.90;99.90
56424;DHT22;42329;43.516;3.684;2022-09-04T00:49:28;21.90;99.90
56424;DHT22;42329;43.516;3.684;2022-09-04T00:52:02;21.90;99.90
56424;DHT22;42329;43.516;3.684;2022-09-04T00:54:42;21.90;99.90
56424;DHT22;42329;43.516;3.684;2022-09-04T01:00:03;21.90;99.90
56424;DHT22;42329;43.516;3.684;2022-09-04T01:02:31;21.90;99.90
56424;DHT22;42329;43.516;3.684;2022-09-04T01:05:02;21.90;99.90
56424;DHT22;42329;43.516;3.684;2022-09-04T01:07:41;21.90;99.90
56424;DHT22;42329;43.516;3.684;2022-09-04T01:10:14;21.90;99.90
56424;DHT22;42329;43.516;3.684;2022-09-04T01:12:44;21.90;99.90
56424;DHT22;42329;43.516;3.684;2022-09-04T01:15:15;21.90;99.90
56424;DHT22;42329;43.516;3.684;2022-09-04T01:17:53;22.00;99.90
56424;DHT22;42329;43.516;3.684;2022-09-04T01:20:26;22.00;99.90
56424;DHT22;42329;43.516;3.684;2022-09-04T01:23:01;22.00;99.90
56424;DHT22;42329;43.516;3.684;2022-09-04T01:28:04;21.90;99.90
56424;DHT22;42329;43.516;3.684;2022-09-04T01:30:36;21.90;99.90
56424;DHT22;42329;43.516;3.684;2022-09-04T01:33:09;21.90;99.90
56424;DHT22;42329;43.516;3.684;2022-09-04T01:35:42;21.80;99.90
56424;DHT22;42329;43.516;3.684;2022-09-04T01:38:14;21.80;99.90
56424;DHT22;42329;43.516;3.684;2022-09-04T01:40:45;21.70;99.90
56424;DHT22;42329;43.516;3.684;2022-09-04T01:43:15;21.70;99.90
56424;DHT22;42329;43.516;3.684;2022-09-04T01:45:54;21.70;99.90
56424;DHT22;42329;43.516;3.684;2022-09-04T01:48:26;21.70;99.90
56424;DHT22;42329;43.516;3.684;2022-09-04T01:50:58;21.70;99.90
56424;DHT22;42329;43.516;3.684;2022-09-04T01:53:26;21.80;99.90
56424;DHT22;42329;43.516;3.684;2022-09-04T01:55:57;21.70;99.90
56424;DHT22;42329;43.516;3.684;2022-09-04T01:58:32;21.70;99.90
56424;DHT22;42329;43.516;3.684;2022-09-04T02:01:03;21.70;99.90
56424;DHT22;42329;43.516;3.684;2022-09-04T02:03:35;21.70;99.90
56424;DHT22;42329;43.516;3.684;2022-09-04T02:06:07;21.60;99.90
56424;DHT22;42329;43.516;3.684;2022-09-04T02:08:42;21.60;99.90
56424;DHT22;42329;43.516;3.684;2022-09-04T02:11:14;21.60;99.90
56424;DHT22;42329;43.516;3.684;2022-09-04T02:13:48;21.60;99.90
56424;DHT22;42329;43.516;3.684;2022-09-04T02:16:22;21.60;99.90
56424;DHT22;42329;43.516;3.684;2022-09-04T02:18:52;21.60;99.90
56424;DHT22;42329;43.516;3.684;2022-09-04T02:21:26;21.60;99.90
56424;DHT22;42329;43.516;3.684;2022-09-04T02:23:56;21.60;99.90
56424;DHT22;42329;43.516;3.684;2022-09-04T02:26:28;21.60;99.90
56424;DHT22;42329;43.516;3.684;2022-09-04T02:28:58;21.60;99.90
56424;DHT22;42329;43.516;3.684;2022-09-04T02:31:29;21.50;99.90
56424;DHT22;42329;43.516;3.684;2022-09-04T02:34:00;21.50;99.90
56424;DHT22;42329;43.516;3.684;2022-09-04T02:36:32;21.60;99.90
56424;DHT22;42329;43.516;3.684;2022-09-04T02:39:02;21.50;99.90
56424;DHT22;42329;43.516;3.684;2022-09-04T02:41:35;21.60;99.90
56424;DHT22;42329;43.516;3.684;2022-09-04T02:44:09;21.60;99.90
56424;DHT22;42329;43.516;3.684;2022-09-04T02:46:42;21.50;99.90
56424;DHT22;42329;43.516;3.684;2022-09-04T02:49:11;21.50;99.90
56424;DHT22;42329;43.516;3.684;2022-09-04T02:51:45;21.50;99.90
56424;DHT22;42329;43.516;3.684;2022-09-04T02:54:16;21.50;99.90
56424;DHT22;42329;43.516;3.684;2022-09-04T02:56:47;21.50;99.90
56424;DHT22;42329;43.516;3.684;2022-09-04T02:59:29;21.40;99.90
56424;DHT22;42329;43.516;3.684;2022-09-04T03:01:59;21.40;99.90
56424;DHT22;42329;43.516;3.684;2022-09-04T03:04:29;21.30;99.90
56424;DHT22;42329;43.516;3.684;2022-09-04T03:06:59;21.30;99.90
56424;DHT22;42329;43.516;3.684;2022-09-04T03:09:28;21.20;99.90
56424;DHT22;42329;43.516;3.684;2022-09-04T03:11:58;21.20;99.90
56424;DHT22;42329;43.516;3.684;2022-09-04T03:14:30;21.20;99.90
56424;DHT22;42329;43.516;3.684;2022-09-04T03:17:01;21.20;99.90
56424;DHT22;42329;43.516;3.684;2022-09-04T03:19:30;21.30;99.90
56424;DHT22;42329;43.516;3.684;2022-09-04T03:22:03;21.20;99.90
56424;DHT22;42329;43.516;3.684;2022-09-04T03:24:32;21.20;99.90
56424;DHT22;42329;43.516;3.684;2022-09-04T03:27:00;21.10;99.90
56424;DHT22;42329;43.516;3.684;2022-09-04T03:29:31;21.10;99.90
56424;DHT22;42329;43.516;3.684;2022-09-04T03:32:07;21.10;99.90
56424;DHT22;42329;43.516;3.684;2022-09-04T03:34:38;21.00;99.90
56424;DHT22;42329;43.516;3.684;2022-09-04T03:37:09;21.00;99.90
56424;DHT22;42329;43.516;3.684;2022-09-04T03:39:40;21.00;99.90
56424;DHT22;42329;43.516;3.684;2022-09-04T03:42:12;21.00;99.90
56424;DHT22;42329;43.516;3.684;2022-09-04T03:44:45;21.00;99.90
56424;DHT22;42329;43.516;3.684;2022-09-04T03:47:17;20.90;99.90
56424;DHT22;42329;43.516;3.684;2022-09-04T03:49:48;20.90;99.90
56424;DHT22;42329;43.516;3.684;2022-09-04T03:52:19;20.80;99.90
56424;DHT22;42329;43.516;3.684;2022-09-04T03:54:50;20.80;99.90
56424;DHT22;42329;43.516;3.684;2022-09-04T03:57:27;20.80;99.90
56424;DHT22;42329;43.516;3.684;2022-09-04T04:00:04;20.80;99.90
56424;DHT22;42329;43.516;3.684;2022-09-04T04:02:37;20.80;99.90
56424;DHT22;42329;43.516;3.684;2022-09-04T04:05:12;20.80;99.90
56424;DHT22;42329;43.516;3.684;2022-09-04T04:07:42;20.80;99.90
56424;DHT22;42329;43.516;3.684;2022-09-04T04:10:20;20.70;99.90
56424;DHT22;42329;43.516;3.684;2022-09-04T04:13:00;20.70;99.90
56424;DHT22;42329;43.516;3.684;2022-09-04T04:15:40;20.60;99.90
56424;DHT22;42329;43.516;3.684;2022-09-04T04:18:23;20.70;99.90
56424;DHT22;42329;43.516;3.684;2022-09-04T04:20:54;20.70;99.90
56424;DHT22;42329;43.516;3.684;2022-09-04T04:23:43;20.70;99.90
56424;DHT22;42329;43.516;3.684;2022-09-04T04:26:14;20.80;99.90
56424;DHT22;42329;43.516;3.684;2022-09-04T04:28:50;20.80;99.90
56424;DHT22;42329;43.516;3.684;2022-09-04T04:31:27;20.80;99.90
56424;DHT22;42329;43.516;3.684;2022-09-04T04:33:59;20.80;99.90
56424;DHT22;42329;43.516;3.684;2022-09-04T04:36:30;20.80;99.90
56424;DHT22;42329;43.516;3.684;2022-09-04T04:39:04;20.80;99.90
56424;DHT22;42329;43.516;3.684;2022-09-04T04:41:41;20.80;99.90
56424;DHT22;42329;43.516;3.684;2022-09-04T04:44:25;20.80;99.90
56424;DHT22;42329;43.516;3.684;2022-09-04T04:47:22;20.70;99.90
56424;DHT22;42329;43.516;3.684;2022-09-04T04:49:56;20.70;99.90
56424;DHT22;42329;43.516;3.684;2022-09-04T04:52:27;20.60;99.90
56424;DHT22;42329;43.516;3.684;2022-09-04T04:55:12;20.60;99.90
56424;DHT22;42329;43.516;3.684;2022-09-04T04:57:47;20.60;99.90
56424;DHT22;42329;43.516;3.684;2022-09-04T05:00:19;20.60;99.90
56424;DHT22;42329;43.516;3.684;2022-09-04T05:02:52;20.60;99.90
56424;DHT22;42329;43.516;3.684;2022-09-04T05:05:39;20.60;99.90
56424;DHT22;42329;43.516;3.684;2022-09-04T05:08:13;20.60;99.90
56424;DHT22;42329;43.516;3.684;2022-09-04T05:10:42;20.60;99.90
56424;DHT22;42329;43.516;3.684;2022-09-04T05:13:13;20.60;99.90
56424;DHT22;42329;43.516;3.684;2022-09-04T05:15:43;20.70;99.90
56424;DHT22;42329;43.516;3.684;2022-09-04T05:18:15;20.80;99.90
56424;DHT22;42329;43.516;3.684;2022-09-04T05:20:46;20.80;99.90
56424;DHT22;42329;43.516;3.684;2022-09-04T05:23:21;20.80;99.90
56424;DHT22;42329;43.516;3.684;2022-09-04T05:25:52;20.80;99.90
56424;DHT22;42329;43.516;3.684;2022-09-04T05:28:22;20.80;99.90
56424;DHT22;42329;43.516;3.684;2022-09-04T05:30:54;20.80;99.90
56424;DHT22;42329;43.516;3.684;2022-09-04T05:33:24;20.80;99.90
56424;DHT22;42329;43.516;3.684;2022-09-04T05:35:58;20.80;99.90
56424;DHT22;42329;43.516;3.684;2022-09-04T05:38:28;20.90;99.90
56424;DHT22;42329;43.516;3.684;2022-09-04T05:41:02;20.90;99.90
56424;DHT22;42329;43.516;3.684;2022-09-04T05:43:32;20.90;99.90
56424;DHT22;42329;43.516;3.684;2022-09-04T05:46:04;20.90;99.90
56424;DHT22;42329;43.516;3.684;2022-09-04T05:48:36;20.90;99.90
56424;DHT22;42329;43.516;3.684;2022-09-04T05:51:20;20.90;99.90
56424;DHT22;42329;43.516;3.684;2022-09-04T05:53:58;20.90;99.90
56424;DHT22;42329;43.516;3.684;2022-09-04T05:59:26;21.00;99.90
56424;DHT22;42329;43.516;3.684;2022-09-04T06:02:01;21.00;99.90
56424;DHT22;42329;43.516;3.684;2022-09-04T06:04:50;21.00;99.90
56424;DHT22;42329;43.516;3.684;2022-09-04T06:07:20;21.00;99.90
56424;DHT22;42329;43.516;3.684;2022-09-04T06:09:56;21.00;99.90
56424;DHT22;42329;43.516;3.684;2022-09-04T06:15:18;21.10;99.90
56424;DHT22;42329;43.516;3.684;2022-09-04T06:17:56;21.10;99.90
56424;DHT22;42329;43.516;3.684;2022-09-04T06:20:31;21.20;99.90
56424;DHT22;42329;43.516;3.684;2022-09-04T06:23:05;21.20;99.90
56424;DHT22;42329;43.516;3.684;2022-09-04T06:28:32;21.30;99.90
56424;DHT22;42329;43.516;3.684;2022-09-04T06:31:05;21.40;99.90
56424;DHT22;42329;43.516;3.684;2022-09-04T06:33:38;21.50;99.90
56424;DHT22;42329;43.516;3.684;2022-09-04T06:39:10;21.70;99.90
56424;DHT22;42329;43.516;3.684;2022-09-04T06:41:46;21.80;99.90
56424;DHT22;42329;43.516;3.684;2022-09-04T06:44:16;21.90;99.90
56424;DHT22;42329;43.516;3.684;2022-09-04T06:46:47;22.00;99.90
56424;DHT22;42329;43.516;3.684;2022-09-04T06:49:21;22.20;99.90
56424;DHT22;42329;43.516;3.684;2022-09-04T06:51:52;22.30;99.90
56424;DHT22;42329;43.516;3.684;2022-09-04T06:54:27;22.50;99.90
56424;DHT22;42329;43.516;3.684;2022-09-04T06:57:03;22.60;99.90
56424;DHT22;42329;43.516;3.684;2022-09-04T06:59:37;22.60;99.90
56424;DHT22;42329;43.516;3.684;2022-09-04T07:02:11;22.70;99.90
56424;DHT22;42329;43.516;3.684;2022-09-04T07:04:45;22.90;99.90
56424;DHT22;42329;43.516;3.684;2022-09-04T07:07:15;23.00;99.90
56424;DHT22;42329;43.516;3.684;2022-09-04T07:09:46;23.10;99.90
56424;DHT22;42329;43.516;3.684;2022-09-04T07:17:55;23.50;99.90
56424;DHT22;42329;43.516;3.684;2022-09-04T07:20:27;23.60;99.90
56424;DHT22;42329;43.516;3.684;2022-09-04T07:23:00;23.70;99.90
56424;DHT22;42329;43.516;3.684;2022-09-04T07:25:36;23.80;99.90
56424;DHT22;42329;43.516;3.684;2022-09-04T07:28:14;23.80;99.90
56424;DHT22;42329;43.516;3.684;2022-09-04T07:30:43;23.70;99.90
56424;DHT22;42329;43.516;3.684;2022-09-04T07:33:13;23.60;99.90
56424;DHT22;42329;43.516;3.684;2022-09-04T07:35:41;23.60;99.90
56424;DHT22;42329;43.516;3.684;2022-09-04T07:38:13;23.60;99.90
56424;DHT22;42329;43.516;3.684;2022-09-04T07:40:43;23.60;99.90
56424;DHT22;42329;43.516;3.684;2022-09-04T07:43:14;23.60;99.90
56424;DHT22;42329;43.516;3.684;2022-09-04T07:45:47;23.80;99.90
56424;DHT22;42329;43.516;3.684;2022-09-04T07:48:21;23.90;99.90
56424;DHT22;42329;43.516;3.684;2022-09-04T07:50:52;23.90;99.90
56424;DHT22;42329;43.516;3.684;2022-09-04T07:53:38;24.00;99.90
56424;DHT22;42329;43.516;3.684;2022-09-04T07:56:14;24.10;99.90
56424;DHT22;42329;43.516;3.684;2022-09-04T07:58:46;24.20;99.90
56424;DHT22;42329;43.516;3.684;2022-09-04T08:01:34;24.20;99.90
56424;DHT22;42329;43.516;3.684;2022-09-04T08:04:18;24.20;99.90
56424;DHT22;42329;43.516;3.684;2022-09-04T08:06:47;24.30;99.90
56424;DHT22;42329;43.516;3.684;2022-09-04T08:09:20;24.30;99.90
56424;DHT22;42329;43.516;3.684;2022-09-04T08:11:56;24.40;99.90
56424;DHT22;42329;43.516;3.684;2022-09-04T08:14:26;24.50;99.90
56424;DHT22;42329;43.516;3.684;2022-09-04T08:17:13;24.50;99.90
56424;DHT22;42329;43.516;3.684;2022-09-04T08:19:45;24.60;99.90
56424;DHT22;42329;43.516;3.684;2022-09-04T08:22:19;24.60;99.90
56424;DHT22;42329;43.516;3.684;2022-09-04T08:24:51;24.70;99.90
56424;DHT22;42329;43.516;3.684;2022-09-04T08:27:25;24.70;99.90
56424;DHT22;42329;43.516;3.684;2022-09-04T08:29:58;24.80;99.90
56424;DHT22;42329;43.516;3.684;2022-09-04T08:32:33;24.90;99.90
56424;DHT22;42329;43.516;3.684;2022-09-04T08:35:06;24.90;99.90
56424;DHT22;42329;43.516;3.684;2022-09-04T08:37:37;25.00;99.90
56424;DHT22;42329;43.516;3.684;2022-09-04T08:48:44;25.10;99.90
56424;DHT22;42329;43.516;3.684;2022-09-04T08:51:22;25.20;99.90
56424;DHT22;42329;43.516;3.684;2022-09-04T08:54:02;25.30;99.90
56424;DHT22;42329;43.516;3.684;2022-09-04T08:56:35;25.40;99.90
56424;DHT22;42329;43.516;3.684;2022-09-04T09:04:47;25.60;99.90
56424;DHT22;42329;43.516;3.684;2022-09-04T09:07:32;25.70;99.90
56424;DHT22;42329;43.516;3.684;2022-09-04T09:10:17;25.80;99.90
56424;DHT22;42329;43.516;3.684;2022-09-04T09:12:59;25.90;99.90
56424;DHT22;42329;43.516;3.684;2022-09-04T09:15:38;26.00;99.90
56424;DHT22;42329;43.516;3.684;2022-09-04T09:18:11;26.10;99.90
56424;DHT22;42329;43.516;3.684;2022-09-04T09:20:45;26.10;99.40
56424;DHT22;42329;43.516;3.684;2022-09-04T09:23:19;26.20;99.80
56424;DHT22;42329;43.516;3.684;2022-09-04T09:25:49;26.20;99.40
56424;DHT22;42329;43.516;3.684;2022-09-04T09:28:24;26.30;99.20
56424;DHT22;42329;43.516;3.684;2022-09-04T09:36:49;26.30;99.10
56424;DHT22;42329;43.516;3.684;2022-09-04T09:39:29;26.20;99.10
56424;DHT22;42329;43.516;3.684;2022-09-04T09:42:15;26.20;99.30
56424;DHT22;42329;43.516;3.684;2022-09-04T09:53:33;26.40;99.00
56424;DHT22;42329;43.516;3.684;2022-09-04T09:59:12;26.50;99.00
56424;DHT22;42329;43.516;3.684;2022-09-04T10:01:52;26.60;99.40
56424;DHT22;42329;43.516;3.684;2022-09-04T10:07:21;26.60;99.40
56424;DHT22;42329;43.516;3.684;2022-09-04T10:12:58;26.70;99.20
56424;DHT22;42329;43.516;3.684;2022-09-04T10:15:39;26.80;99.30
56424;DHT22;42329;43.516;3.684;2022-09-04T10:21:17;26.80;99.10
56424;DHT22;42329;43.516;3.684;2022-09-04T10:24:10;27.00;99.30
56424;DHT22;42329;43.516;3.684;2022-09-04T10:26:47;27.10;99.40
56424;DHT22;42329;43.516;3.684;2022-09-04T10:32:08;27.20;99.10
56424;DHT22;42329;43.516;3.684;2022-09-04T10:34:42;27.10;99.40
56424;DHT22;42329;43.516;3.684;2022-09-04T10:37:19;27.00;99.10
56424;DHT22;42329;43.516;3.684;2022-09-04T10:39:54;27.00;99.10
56424;DHT22;42329;43.516;3.684;2022-09-04T10:42:44;27.00;99.00
56424;DHT22;42329;43.516;3.684;2022-09-04T10:45:15;27.10;99.30
56424;DHT22;42329;43.516;3.684;2022-09-04T10:50:42;27.40;99.30
56424;DHT22;42329;43.516;3.684;2022-09-04T10:53:17;27.50;99.10
56424;DHT22;42329;43.516;3.684;2022-09-04T10:55:54;27.60;98.90
56424;DHT22;42329;43.516;3.684;2022-09-04T10:58:39;27.70;99.30
56424;DHT22;42329;43.516;3.684;2022-09-04T11:06:43;27.80;98.80
56424;DHT22;42329;43.516;3.684;2022-09-04T11:09:19;27.90;99.00
56424;DHT22;42329;43.516;3.684;2022-09-04T11:12:16;27.80;99.10
56424;DHT22;42329;43.516;3.684;2022-09-04T11:14:52;27.80;98.90
56424;DHT22;42329;43.516;3.684;2022-09-04T11:23:09;28.00;99.00
56424;DHT22;42329;43.516;3.684;2022-09-04T11:26:03;28.00;98.60
56424;DHT22;42329;43.516;3.684;2022-09-04T11:28:45;27.90;98.60
56424;DHT22;42329;43.516;3.684;2022-09-04T11:42:20;28.10;99.20
56424;DHT22;42329;43.516;3.684;2022-09-04T11:44:59;28.20;98.90
56424;DHT22;42329;43.516;3.684;2022-09-04T11:47:37;28.20;99.10
56424;DHT22;42329;43.516;3.684;2022-09-04T11:50:13;28.20;99.00
56424;DHT22;42329;43.516;3.684;2022-09-04T11:52:48;28.00;98.70
56424;DHT22;42329;43.516;3.684;2022-09-04T11:55:29;27.90;99.00
56424;DHT22;42329;43.516;3.684;2022-09-04T12:00:58;28.00;99.20
56424;DHT22;42329;43.516;3.684;2022-09-04T12:03:43;28.00;98.80
56424;DHT22;42329;43.516;3.684;2022-09-04T12:06:21;28.10;98.90
56424;DHT22;42329;43.516;3.684;2022-09-04T12:14:55;28.10;98.80
56424;DHT22;42329;43.516;3.684;2022-09-04T12:17:34;28.20;98.70
56424;DHT22;42329;43.516;3.684;2022-09-04T12:20:12;28.10;98.40
56424;DHT22;42329;43.516;3.684;2022-09-04T12:23:01;28.10;98.60
56424;DHT22;42329;43.516;3.684;2022-09-04T12:31:13;28.10;98.40
56424;DHT22;42329;43.516;3.684;2022-09-04T12:33:50;28.10;98.30
56424;DHT22;42329;43.516;3.684;2022-09-04T12:41:55;28.10;97.90
56424;DHT22;42329;43.516;3.684;2022-09-04T12:44:28;28.10;97.90
56424;DHT22;42329;43.516;3.684;2022-09-04T12:47:00;28.10;97.60
56424;DHT22;42329;43.516;3.684;2022-09-04T12:49:40;28.20;97.90
56424;DHT22;42329;43.516;3.684;2022-09-04T12:52:12;28.20;97.50
56424;DHT22;42329;43.516;3.684;2022-09-04T12:54:45;28.20;97.80
56424;DHT22;42329;43.516;3.684;2022-09-04T12:57:20;28.20;97.90
56424;DHT22;42329;43.516;3.684;2022-09-04T12:59:54;28.20;97.80
56424;DHT22;42329;43.516;3.684;2022-09-04T13:02:26;28.20;97.60
56424;DHT22;42329;43.516;3.684;2022-09-04T13:04:59;28.20;97.80
56424;DHT22;42329;43.516;3.684;2022-09-04T13:07:33;28.20;98.00
56424;DHT22;42329;43.516;3.684;2022-09-04T13:10:07;28.30;97.80
56424;DHT22;42329;43.516;3.684;2022-09-04T13:12:40;28.20;97.80
56424;DHT22;42329;43.516;3.684;2022-09-04T13:15:17;28.20;98.00
56424;DHT22;42329;43.516;3.684;2022-09-04T13:17:47;28.30;98.30
56424;DHT22;42329;43.516;3.684;2022-09-04T13:20:18;28.30;98.10
56424;DHT22;42329;43.516;3.684;2022-09-04T13:22:53;28.30;98.00
56424;DHT22;42329;43.516;3.684;2022-09-04T13:25:25;28.40;98.40
56424;DHT22;42329;43.516;3.684;2022-09-04T13:27:59;28.30;98.10
56424;DHT22;42329;43.516;3.684;2022-09-04T13:30:31;28.30;98.40
56424;DHT22;42329;43.516;3.684;2022-09-04T13:35:57;28.30;98.30
56424;DHT22;42329;43.516;3.684;2022-09-04T13:44:32;28.40;98.30
56424;DHT22;42329;43.516;3.684;2022-09-04T13:47:05;28.30;98.00
56424;DHT22;42329;43.516;3.684;2022-09-04T13:49:34;28.40;98.30
56424;DHT22;42329;43.516;3.684;2022-09-04T13:52:04;28.40;98.40
56424;DHT22;42329;43.516;3.684;2022-09-04T13:54:33;28.30;98.50
56424;DHT22;42329;43.516;3.684;2022-09-04T13:57:03;28.40;98.60
56424;DHT22;42329;43.516;3.684;2022-09-04T13:59:32;28.40;98.40
56424;DHT22;42329;43.516;3.684;2022-09-04T14:02:01;28.40;98.40
56424;DHT22;42329;43.516;3.684;2022-09-04T14:04:30;28.30;98.60
56424;DHT22;42329;43.516;3.684;2022-09-04T14:06:59;28.30;98.70
56424;DHT22;42329;43.516;3.684;2022-09-04T14:09:33;28.40;98.40
56424;DHT22;42329;43.516;3.684;2022-09-04T14:12:10;28.30;98.80
56424;DHT22;42329;43.516;3.684;2022-09-04T14:14:47;28.30;99.10
56424;DHT22;42329;43.516;3.684;2022-09-04T14:17:20;28.30;99.00
56424;DHT22;42329;43.516;3.684;2022-09-04T14:19:53;28.30;99.30
56424;DHT22;42329;43.516;3.684;2022-09-04T14:22:32;28.30;99.40
56424;DHT22;42329;43.516;3.684;2022-09-04T14:25:07;28.40;99.30
56424;DHT22;42329;43.516;3.684;2022-09-04T14:27:37;28.30;99.20
56424;DHT22;42329;43.516;3.684;2022-09-04T14:30:07;28.30;99.30
56424;DHT22;42329;43.516;3.684;2022-09-04T14:32:37;28.30;99.10
56424;DHT22;42329;43.516;3.684;2022-09-04T14:35:08;28.20;98.90
56424;DHT22;42329;43.516;3.684;2022-09-04T14:37:46;28.20;99.10
56424;DHT22;42329;43.516;3.684;2022-09-04T14:40:20;28.20;99.00
56424;DHT22;42329;43.516;3.684;2022-09-04T14:42:51;28.20;99.20
56424;DHT22;42329;43.516;3.684;2022-09-04T14:45:27;28.20;99.20
56424;DHT22;42329;43.516;3.684;2022-09-04T14:47:57;28.20;99.10
56424;DHT22;42329;43.516;3.684;2022-09-04T14:50:28;28.10;99.30
56424;DHT22;42329;43.516;3.684;2022-09-04T14:52:59;28.10;99.50
56424;DHT22;42329;43.516;3.684;2022-09-04T14:55:30;28.00;99.60
56424;DHT22;42329;43.516;3.684;2022-09-04T14:57:57;28.00;99.30
56424;DHT22;42329;43.516;3.684;2022-09-04T15:00:27;27.90;99.50
56424;DHT22;42329;43.516;3.684;2022-09-04T15:02:59;27.90;99.70
56424;DHT22;42329;43.516;3.684;2022-09-04T15:05:28;27.90;99.90
56424;DHT22;42329;43.516;3.684;2022-09-04T15:07:57;27.90;99.90
56424;DHT22;42329;43.516;3.684;2022-09-04T15:10:27;27.90;99.90
56424;DHT22;42329;43.516;3.684;2022-09-04T15:13:05;28.00;99.90
56424;DHT22;42329;43.516;3.684;2022-09-04T15:15:36;28.00;99.90
56424;DHT22;42329;43.516;3.684;2022-09-04T15:18:07;27.90;99.90
56424;DHT22;42329;43.516;3.684;2022-09-04T15:20:35;27.90;99.90
56424;DHT22;42329;43.516;3.684;2022-09-04T15:23:04;27.80;99.90
56424;DHT22;42329;43.516;3.684;2022-09-04T15:28:23;27.80;99.90
56424;DHT22;42329;43.516;3.684;2022-09-04T15:31:00;27.80;99.90
56424;DHT22;42329;43.516;3.684;2022-09-04T15:33:29;27.80;99.90
56424;DHT22;42329;43.516;3.684;2022-09-04T15:36:01;27.80;99.90
56424;DHT22;42329;43.516;3.684;2022-09-04T15:38:32;27.70;99.90
56424;DHT22;42329;43.516;3.684;2022-09-04T15:41:02;27.60;99.90
56424;DHT22;42329;43.516;3.684;2022-09-04T15:43:32;27.60;99.90
56424;DHT22;42329;43.516;3.684;2022-09-04T15:46:01;27.60;99.90
56424;DHT22;42329;43.516;3.684;2022-09-04T15:48:35;27.60;99.90
56424;DHT22;42329;43.516;3.684;2022-09-04T15:51:14;27.60;99.90
56424;DHT22;42329;43.516;3.684;2022-09-04T15:53:45;27.70;99.90
56424;DHT22;42329;43.516;3.684;2022-09-04T15:56:26;27.70;99.90
56424;DHT22;42329;43.516;3.684;2022-09-04T15:58:56;27.70;99.90
56424;DHT22;42329;43.516;3.684;2022-09-04T16:01:26;27.70;99.90
56424;DHT22;42329;43.516;3.684;2022-09-04T16:03:56;27.70;99.90
56424;DHT22;42329;43.516;3.684;2022-09-04T16:06:27;27.70;99.90
56424;DHT22;42329;43.516;3.684;2022-09-04T16:08:58;27.70;99.90
56424;DHT22;42329;43.516;3.684;2022-09-04T16:11:27;27.60;99.90
56424;DHT22;42329;43.516;3.684;2022-09-04T16:13:58;27.60;99.90
56424;DHT22;42329;43.516;3.684;2022-09-04T16:16:28;27.60;99.90
56424;DHT22;42329;43.516;3.684;2022-09-04T16:19:00;27.60;99.90
56424;DHT22;42329;43.516;3.684;2022-09-04T16:21:38;27.50;99.90
56424;DHT22;42329;43.516;3.684;2022-09-04T16:24:06;27.50;99.90
56424;DHT22;42329;43.516;3.684;2022-09-04T16:26:37;27.50;99.90
56424;DHT22;42329;43.516;3.684;2022-09-04T16:29:06;27.40;99.90
56424;DHT22;42329;43.516;3.684;2022-09-04T16:31:36;27.40;99.90
56424;DHT22;42329;43.516;3.684;2022-09-04T16:34:05;27.40;99.90
56424;DHT22;42329;43.516;3.684;2022-09-04T16:36:39;27.40;99.90
56424;DHT22;42329;43.516;3.684;2022-09-04T16:39:10;27.40;99.90
56424;DHT22;42329;43.516;3.684;2022-09-04T16:41:45;27.40;99.90
56424;DHT22;42329;43.516;3.684;2022-09-04T16:44:17;27.40;99.90
56424;DHT22;42329;43.516;3.684;2022-09-04T16:46:47;27.30;99.90
56424;DHT22;42329;43.516;3.684;2022-09-04T16:49:18;27.30;99.90
56424;DHT22;42329;43.516;3.684;2022-09-04T16:51:47;27.20;99.90
56424;DHT22;42329;43.516;3.684;2022-09-04T16:54:17;27.20;99.90
56424;DHT22;42329;43.516;3.684;2022-09-04T16:56:45;27.10;99.90
56424;DHT22;42329;43.516;3.684;2022-09-04T16:59:19;27.10;99.90
56424;DHT22;42329;43.516;3.684;2022-09-04T17:01:48;27.00;99.90
56424;DHT22;42329;43.516;3.684;2022-09-04T17:07:11;27.00;99.90
56424;DHT22;42329;43.516;3.684;2022-09-04T17:09:49;27.00;99.90
56424;DHT22;42329;43.516;3.684;2022-09-04T17:12:21;27.00;99.90
56424;DHT22;42329;43.516;3.684;2022-09-04T17:14:53;27.00;99.90
56424;DHT22;42329;43.516;3.684;2022-09-04T17:17:21;27.00;99.90
56424;DHT22;42329;43.516;3.684;2022-09-04T17:19:57;26.90;99.90
56424;DHT22;42329;43.516;3.684;2022-09-04T17:22:26;26.90;99.90
56424;DHT22;42329;43.516;3.684;2022-09-04T17:25:03;26.90;99.90
56424;DHT22;42329;43.516;3.684;2022-09-04T17:27:34;26.80;99.90
56424;DHT22;42329;43.516;3.684;2022-09-04T17:30:06;26.80;99.90
56424;DHT22;42329;43.516;3.684;2022-09-04T17:32:36;26.70;99.90
56424;DHT22;42329;43.516;3.684;2022-09-04T17:35:12;26.70;99.90
56424;DHT22;42329;43.516;3.684;2022-09-04T17:37:43;26.70;99.90
56424;DHT22;42329;43.516;3.684;2022-09-04T17:40:13;26.70;99.90
56424;DHT22;42329;43.516;3.684;2022-09-04T17:42:46;26.60;99.90
56424;DHT22;42329;43.516;3.684;2022-09-04T17:45:16;26.60;99.90
56424;DHT22;42329;43.516;3.684;2022-09-04T17:47:46;26.60;99.90
56424;DHT22;42329;43.516;3.684;2022-09-04T17:50:14;26.50;99.90
56424;DHT22;42329;43.516;3.684;2022-09-04T17:55:28;26.40;99.90
56424;DHT22;42329;43.516;3.684;2022-09-04T17:57:57;26.40;99.90
56424;DHT22;42329;43.516;3.684;2022-09-04T18:00:28;26.40;99.90
56424;DHT22;42329;43.516;3.684;2022-09-04T18:02:58;26.40;99.90
56424;DHT22;42329;43.516;3.684;2022-09-04T18:05:27;26.40;99.90
56424;DHT22;42329;43.516;3.684;2022-09-04T18:07:58;26.40;99.90
56424;DHT22;42329;43.516;3.684;2022-09-04T18:10:30;26.30;99.90
56424;DHT22;42329;43.516;3.684;2022-09-04T18:13:09;26.40;99.90
56424;DHT22;42329;43.516;3.684;2022-09-04T18:15:45;26.30;99.90
56424;DHT22;42329;43.516;3.684;2022-09-04T18:18:16;26.30;99.90